LFOT/TUF METAR and TAF weather

Enter ICAO airport designator
Station Type Date Time Source
LFOT METAR 2021/07/30 07:00 UTC NOAA

LFOT 300700Z AUTO 21008KT 180V240 9999 BKN019 BKN025 OVC060 16/14 Q1011 NOSIG


Station Type Date Time Source
LFOT Decoded METAR 2021/07/30 07:00 UTC NOAA

Tours, France (LFOT) 47-27N 000-43E 112M
Jul 30, 2021 - 03:00 AM EDT / 2021.07.30 0700 UTC
Wind: from the SSW (210 degrees) at 9 MPH (8 KT) (direction variable):0
Visibility: greater than 7 mile(s):0
Sky conditions: overcast
Temperature: 60 F (16 C)
Dew Point: 57 F (14 C)
Relative Humidity: 87%
Pressure (altimeter): 29.85 in. Hg (1011 hPa)
ob: LFOT 300700Z AUTO 21008KT 180V240 9999 BKN019 BKN025 OVC060 16/14 Q1011 NOSIG
cycle: 7

Station Type Date Time Source
LFOT TAF 2021/07/30 06:23 UTC NOAA

TAF LFOT 300500Z 3006/3106 20010KT 9999 BKN025
TEMPO 3008/3010 -RA
BECMG 3010/3012 CAVOK
TEMPO 3012/3017 26015G25KT PROB30
TEMPO 3105/3106 BKN008

Example: see airport list